| time (UTC) | temp C | wind direction | speed KPH | gust KPH | rain 1hr cm | rain 24hr cm | rain mn cm | humidity % | barometer mb |
| 20260504151028 | 21 | 243 | 30.6 | 37.0 | 0.00 | 0.00 | 0.00 | 55 | 1005.3 |
| 20260504150525 | 21 | 263 | 29.0 | 33.8 | 0.00 | 0.00 | 0.00 | 59 | 1005.3 |
| 20260504140950 | 19 | 245 | 17.7 | 17.7 | 0.00 | 0.00 | 0.00 | 63 | 1005.7 |
| 20260504140447 | 18 | 267 | 16.1 | 17.7 | 0.00 | 0.00 | 0.00 | 65 | 1005.9 |
| 20260504130411 | 17 | 148 | 1.6 | 1.6 | 0.00 | 0.00 | 0.00 | 78 | 1006.3 |
| 20260504110259 | 11 | 231 | 1.6 | 1.6 | 0.00 | 0.00 | 0.00 | 83 | 1006.9 |
| 20260504100217 | 11 | 221 | 3.2 | 3.2 | 0.00 | 0.00 | 0.00 | 82 | 1007.4 |
| 20260504090139 | 10 | 259 | 4.8 | 4.8 | 0.00 | 0.00 | 0.00 | 87 | 1007.8 |
| 20260504081610 | 9 | 248 | 3.2 | 4.8 | 0.00 | 0.00 | 0.00 | 87 | 1008.1 |
| 20260504081106 | 10 | 257 | 3.2 | 3.2 | 0.00 | 0.00 | 0.00 | 84 | 1007.9 |
| 20260504080603 | 10 | 251 | 3.2 | 3.2 | 0.00 | 0.00 | 0.00 | 84 | 1008.1 |
| 20260504050416 | 11 | 156 | 1.6 | 1.6 | 0.00 | 0.00 | 0.00 | 85 | 1009.3 |
| 20260504045913 | 12 | 131 | 1.6 | 1.6 | 0.00 | 0.00 | 0.00 | 79 | 1009.4 |
| 20260504045408 | 12 | 21 | 3.2 | 4.8 | 0.00 | 0.00 | 0.00 | 82 | 1009.4 |
| 20260504044904 | 12 | 27 | 4.8 | 6.4 | 0.00 | 0.00 | 0.00 | 81 | 1009.3 |
| 20260504044402 | 13 | 37 | 4.8 | 4.8 | 0.00 | 0.00 | 0.00 | 77 | 1009.4 |
| 20260504043900 | 15 | 32 | 0.0 | 0.0 | 0.00 | 0.00 | 0.00 | 73 | 1009.5 |
| 20260504043356 | 15 | 290 | 0.0 | 0.0 | 0.00 | 0.00 | 0.00 | 67 | 1009.5 |
| 20260504042854 | 15 | 290 | 0.0 | 0.0 | 0.00 | 0.00 | 0.00 | 67 | 1009.7 |
| 20260504042350 | 15 | 292 | 0.0 | 0.0 | 0.00 | 0.00 | 0.00 | 67 | 1009.9 |
| 20260504041846 | 15 | 306 | 0.0 | 0.0 | 0.00 | 0.00 | 0.00 | 68 | 1009.7 |
| 20260504041343 | 15 | 304 | 0.0 | 0.0 | 0.00 | 0.00 | 0.00 | 68 | 1009.8 |
| 20260504040839 | 15 | 264 | 0.0 | 0.0 | 0.00 | 0.00 | 0.00 | 68 | 1009.8 |
| 20260504040337 | 15 | 269 | 3.2 | 3.2 | 0.00 | 0.00 | 0.00 | 68 | 1009.7 |
| 20260504035832 | 15 | 272 | 3.2 | 4.8 | 0.00 | 0.00 | 0.00 | 69 | 1009.8 |
| 20260504035330 | 15 | 282 | 4.8 | 4.8 | 0.00 | 0.00 | 0.00 | 68 | 1009.9 |
| 20260504034827 | 15 | 284 | 1.6 | 3.2 | 0.00 | 0.00 | 0.00 | 69 | 1009.8 |
| 20260504034325 | 14 | 306 | 3.2 | 4.8 | 0.00 | 0.00 | 0.00 | 74 | 1010.1 |
| 20260504033821 | 13 | 239 | 3.2 | 3.2 | 0.00 | 0.00 | 0.00 | 70 | 1010.1 |
| 20260504033319 | 14 | 284 | 1.6 | 4.8 | 0.00 | 0.00 | 0.00 | 75 | 1010.3 |
| 20260504032815 | 15 | 269 | 3.2 | 4.8 | 0.00 | 0.00 | 0.00 | 73 | 1010.2 |
| 20260504032313 | 14 | 260 | 4.8 | 4.8 | 0.00 | 0.00 | 0.00 | 73 | 1010.4 |
| 20260504031809 | 15 | 253 | 4.8 | 4.8 | 0.00 | 0.00 | 0.00 | 70 | 1010.3 |
| 20260504031307 | 15 | 250 | 4.8 | 6.4 | 0.00 | 0.00 | 0.00 | 69 | 1010.3 |
| 20260504030803 | 15 | 240 | 6.4 | 6.4 | 0.00 | 0.00 | 0.00 | 70 | 1010.5 |
| 20260504030300 | 14 | 257 | 8.0 | 9.7 | 0.00 | 0.00 | 0.00 | 71 | 1010.5 |
| 20260504025756 | 14 | 259 | 8.0 | 9.7 | 0.00 | 0.00 | 0.00 | 72 | 1010.5 |
| 20260504025254 | 15 | 277 | 4.8 | 6.4 | 0.00 | 0.00 | 0.00 | 69 | 1010.5 |
| 20260504024750 | 15 | 254 | 6.4 | 6.4 | 0.00 | 0.00 | 0.00 | 68 | 1010.5 |
| 20260504024247 | 16 | 239 | 6.4 | 9.7 | 0.00 | 0.00 | 0.00 | 64 | 1010.4 |
| 20260504023743 | 16 | 231 | 6.4 | 9.7 | 0.00 | 0.00 | 0.00 | 61 | 1010.3 |
| 20260504023240 | 17 | 239 | 6.4 | 6.4 | 0.00 | 0.00 | 0.00 | 60 | 1010.3 |
| 20260504022735 | 17 | 232 | 6.4 | 6.4 | 0.00 | 0.00 | 0.00 | 61 | 1010.5 |
| 20260504022232 | 17 | 242 | 6.4 | 6.4 | 0.00 | 0.00 | 0.00 | 59 | 1010.3 |
| 20260504021729 | 17 | 228 | 8.0 | 9.7 | 0.00 | 0.00 | 0.00 | 60 | 1010.3 |
| 20260504021227 | 17 | 237 | 8.0 | 9.7 | 0.00 | 0.00 | 0.00 | 59 | 1010.1 |
| 20260504020723 | 17 | 219 | 4.8 | 4.8 | 0.00 | 0.00 | 0.00 | 61 | 1010.3 |
| 20260504020220 | 16 | 246 | 6.4 | 6.4 | 0.00 | 0.00 | 0.00 | 63 | 1010.4 |
| 20260504015716 | 16 | 241 | 8.0 | 9.7 | 0.00 | 0.00 | 0.00 | 65 | 1010.4 |
| 20260504015212 | 16 | 242 | 6.4 | 6.4 | 0.00 | 0.00 | 0.00 | 68 | 1010.5 |
| 20260504014708 | 16 | 246 | 6.4 | 6.4 | 0.00 | 0.00 | 0.00 | 70 | 1010.5 |
| 20260504014205 | 16 | 257 | 3.2 | 4.8 | 0.00 | 0.00 | 0.00 | 71 | 1010.3 |
| 20260504013703 | 16 | 276 | 3.2 | 3.2 | 0.00 | 0.00 | 0.00 | 72 | 1010.1 |
| 20260504013159 | 16 | 274 | 3.2 | 4.8 | 0.00 | 0.00 | 0.00 | 73 | 1010.3 |
| 20260504012656 | 17 | 240 | 4.8 | 6.4 | 0.00 | 0.00 | 0.00 | 63 | 1010.1 |
| 20260504012154 | 17 | 242 | 6.4 | 6.4 | 0.00 | 0.00 | 0.00 | 62 | 1010.3 |
| 20260504011651 | 17 | 245 | 6.4 | 6.4 | 0.00 | 0.00 | 0.00 | 63 | 1010.1 |
| 20260504011147 | 16 | 244 | 6.4 | 6.4 | 0.00 | 0.00 | 0.00 | 66 | 1010.1 |
| 20260504010643 | 17 | 258 | 6.4 | 6.4 | 0.00 | 0.00 | 0.00 | 65 | 1010.1 |
| 20260504010139 | 17 | 249 | 6.4 | 6.4 | 0.00 | 0.00 | 0.00 | 64 | 1010.2 |
| 20260504005636 | 17 | 262 | 6.4 | 6.4 | 0.00 | 0.00 | 0.00 | 66 | 1010.2 |
| 20260504005128 | 18 | 254 | 8.0 | 9.7 | 0.00 | 0.00 | 0.00 | 62 | 1010.3 |
| 20260504004626 | 18 | 266 | 6.4 | 6.4 | 0.00 | 0.00 | 0.00 | 59 | 1010.2 |
| 20260504004122 | 18 | 268 | 6.4 | 6.4 | 0.00 | 0.00 | 0.00 | 61 | 1010.1 |
| 20260504003619 | 18 | 260 | 6.4 | 6.4 | 0.00 | 0.00 | 0.00 | 60 | 1010.0 |
| 20260504003110 | 18 | 265 | 6.4 | 9.7 | 0.00 | 0.00 | 0.00 | 60 | 1010.2 |
| 20260504002607 | 19 | 264 | 6.4 | 6.4 | 0.00 | 0.00 | 0.00 | 59 | 1010.0 |
| 20260504002105 | 19 | 275 | 4.8 | 6.4 | 0.00 | 0.00 | 0.00 | 60 | 1010.0 |
| 20260504001602 | 19 | 268 | 9.7 | 9.7 | 0.00 | 0.00 | 0.00 | 57 | 1010.1 |
| 20260504001058 | 20 | 264 | 9.7 | 11.3 | 0.00 | 0.00 | 0.00 | 55 | 1010.2 |
| 20260504000555 | 20 | 283 | 9.7 | 12.9 | 0.00 | 0.00 | 0.00 | 55 | 1010.1 |
| 20260504000053 | 20 | 268 | 14.5 | 14.5 | 0.00 | 0.00 | 0.00 | 53 | 1010.1 |
| 20260503235551 | 20 | 255 | 11.3 | 16.1 | 0.00 | 0.00 | 0.00 | 53 | 1010.2 |
| 20260503235047 | 20 | 262 | 12.9 | 12.9 | 0.00 | 0.00 | 0.00 | 54 | 1010.2 |
| 20260503234545 | 20 | 275 | 17.7 | 20.9 | 0.00 | 0.00 | 0.00 | 51 | 1010.4 |
| 20260503234043 | 20 | 271 | 16.1 | 20.9 | 0.00 | 0.00 | 0.00 | 52 | 1010.3 |
| 20260503233539 | 20 | 264 | 14.5 | 20.9 | 0.00 | 0.00 | 0.00 | 52 | 1010.3 |
| 20260503233035 | 21 | 264 | 14.5 | 16.1 | 0.00 | 0.00 | 0.00 | 51 | 1010.2 |
| 20260503232533 | 21 | 273 | 16.1 | 20.9 | 0.00 | 0.00 | 0.00 | 50 | 1010.2 |
| 20260503232030 | 21 | 288 | 14.5 | 16.1 | 0.00 | 0.00 | 0.00 | 49 | 1009.9 |
| 20260503231528 | 21 | 269 | 16.1 | 20.9 | 0.00 | 0.00 | 0.00 | 50 | 1010.1 |
| 20260503231024 | 21 | 266 | 16.1 | 20.9 | 0.00 | 0.00 | 0.00 | 51 | 1010.1 |
| 20260503230521 | 21 | 261 | 12.9 | 16.1 | 0.00 | 0.00 | 0.00 | 52 | 1010.1 |
| 20260503230018 | 20 | 275 | 14.5 | 17.7 | 0.00 | 0.00 | 0.00 | 52 | 1010.5 |
| 20260503225515 | 20 | 297 | 14.5 | 17.7 | 0.00 | 0.00 | 0.00 | 53 | 1010.4 |
| 20260503225010 | 20 | 281 | 17.7 | 17.7 | 0.00 | 0.00 | 0.00 | 52 | 1010.5 |
| 20260503224508 | 20 | 269 | 22.5 | 25.7 | 0.00 | 0.00 | 0.00 | 52 | 1010.3 |
| 20260503224005 | 21 | 267 | 19.3 | 22.5 | 0.00 | 0.00 | 0.00 | 52 | 1010.3 |
| 20260503223502 | 20 | 260 | 16.1 | 17.7 | 0.00 | 0.00 | 0.00 | 52 | 1010.0 |
| 20260503222957 | 20 | 266 | 17.7 | 22.5 | 0.00 | 0.00 | 0.00 | 51 | 1010.5 |
| 20260503222456 | 20 | 266 | 17.7 | 22.5 | 0.00 | 0.00 | 0.00 | 51 | 1010.5 |
| 20260503221949 | 20 | 260 | 24.1 | 33.8 | 0.00 | 0.00 | 0.00 | 50 | 1010.7 |
| 20260503221447 | 21 | 273 | 25.7 | 35.4 | 0.00 | 0.00 | 0.00 | 49 | 1010.3 |
| 20260503220944 | 21 | 264 | 25.7 | 35.4 | 0.00 | 0.00 | 0.00 | 48 | 1010.2 |
| 20260503220439 | 21 | 259 | 33.8 | 37.0 | 0.00 | 0.00 | 0.00 | 48 | 1010.1 |
| 20260503215937 | 21 | 269 | 29.0 | 33.8 | 0.00 | 0.00 | 0.00 | 48 | 1010.2 |
| 20260503215434 | 21 | 270 | 24.1 | 38.6 | 0.00 | 0.00 | 0.00 | 49 | 1010.2 |
| 20260503214931 | 21 | 259 | 33.8 | 38.6 | 0.00 | 0.00 | 0.00 | 48 | 1010.2 |
| 20260503214429 | 21 | 266 | 35.4 | 40.2 | 0.00 | 0.00 | 0.00 | 48 | 1010.3 |
| 20260503213926 | 21 | 273 | 32.2 | 40.2 | 0.00 | 0.00 | 0.00 | 48 | 1010.3 |
| 20260503213424 | 21 | 248 | 37.0 | 43.5 | 0.00 | 0.00 | 0.00 | 47 | 1010.3 |
| 20260503212920 | 21 | 249 | 29.0 | 38.6 | 0.00 | 0.00 | 0.00 | 49 | 1010.4 |
| 20260503212418 | 21 | 279 | 40.2 | 56.3 | 0.00 | 0.00 | 0.00 | 48 | 1010.4 |
| 20260503211915 | 21 | 271 | 37.0 | 56.3 | 0.00 | 0.00 | 0.00 | 49 | 1010.4 |
| 20260503211412 | 21 | 283 | 33.8 | 51.5 | 0.00 | 0.00 | 0.00 | 49 | 1010.5 |
| 20260503210907 | 21 | 251 | 41.8 | 49.9 | 0.00 | 0.00 | 0.00 | 48 | 1010.5 |
| 20260503210404 | 21 | 265 | 40.2 | 48.3 | 0.00 | 0.00 | 0.00 | 48 | 1010.1 |
| 20260503205858 | 21 | 245 | 41.8 | 51.5 | 0.00 | 0.00 | 0.00 | 47 | 1010.2 |
| 20260503205355 | 21 | 262 | 45.1 | 49.9 | 0.00 | 0.00 | 0.00 | 47 | 1010.2 |
| 20260503204852 | 21 | 268 | 43.5 | 48.3 | 0.00 | 0.00 | 0.00 | 47 | 1010.6 |
| 20260503204349 | 21 | 263 | 32.2 | 41.8 | 0.00 | 0.00 | 0.00 | 47 | 1010.4 |
| 20260503203846 | 21 | 251 | 32.2 | 38.6 | 0.00 | 0.00 | 0.00 | 48 | 1010.2 |
| 20260503203344 | 20 | 269 | 38.6 | 43.5 | 0.00 | 0.00 | 0.00 | 48 | 1011.0 |
| 20260503202841 | 21 | 266 | 40.2 | 46.7 | 0.00 | 0.00 | 0.00 | 48 | 1010.9 |
| 20260503202339 | 21 | 273 | 32.2 | 38.6 | 0.00 | 0.00 | 0.00 | 48 | 1011.2 |
| 20260503201837 | 20 | 269 | 32.2 | 41.8 | 0.00 | 0.00 | 0.00 | 48 | 1011.2 |
| 20260503201333 | 20 | 255 | 37.0 | 49.9 | 0.00 | 0.00 | 0.00 | 48 | 1011.0 |
| 20260503200831 | 20 | 268 | 27.4 | 35.4 | 0.00 | 0.00 | 0.00 | 48 | 1010.8 |
| 20260503200326 | 20 | 266 | 27.4 | 30.6 | 0.00 | 0.00 | 0.00 | 49 | 1011.1 |
| 20260503195824 | 20 | 241 | 29.0 | 30.6 | 0.00 | 0.00 | 0.00 | 50 | 1011.3 |
| 20260503195320 | 19 | 234 | 22.5 | 30.6 | 0.00 | 0.00 | 0.00 | 51 | 1011.0 |
| 20260503194818 | 19 | 241 | 22.5 | 29.0 | 0.00 | 0.00 | 0.00 | 52 | 1011.0 |
| 20260503194314 | 18 | 234 | 27.4 | 30.6 | 0.00 | 0.00 | 0.00 | 52 | 1011.2 |
| 20260503193810 | 18 | 236 | 33.8 | 37.0 | 0.00 | 0.00 | 0.00 | 52 | 1011.6 |
| 20260503193306 | 18 | 244 | 27.4 | 37.0 | 0.00 | 0.00 | 0.00 | 52 | 1011.5 |
| 20260503192802 | 18 | 241 | 30.6 | 35.4 | 0.00 | 0.00 | 0.00 | 50 | 1011.9 |
| 20260503192257 | 18 | 240 | 32.2 | 38.6 | 0.00 | 0.00 | 0.00 | 50 | 1011.9 |
| 20260503191754 | 18 | 251 | 33.8 | 38.6 | 0.00 | 0.00 | 0.00 | 50 | 1012.3 |
| 20260503191251 | 18 | 243 | 30.6 | 37.0 | 0.00 | 0.00 | 0.00 | 50 | 1011.9 |
| 20260503190748 | 18 | 272 | 30.6 | 38.6 | 0.00 | 0.00 | 0.00 | 50 | 1012.3 |
| 20260503190245 | 18 | 261 | 27.4 | 33.8 | 0.00 | 0.00 | 0.00 | 49 | 1012.4 |
| 20260503185742 | 18 | 242 | 29.0 | 30.6 | 0.00 | 0.00 | 0.00 | 49 | 1012.0 |
| 20260503185238 | 18 | 237 | 30.6 | 40.2 | 0.00 | 0.00 | 0.00 | 49 | 1011.3 |
| 20260503184732 | 18 | 240 | 30.6 | 35.4 | 0.00 | 0.00 | 0.00 | 49 | 1011.5 |
| 20260503184229 | 18 | 262 | 37.0 | 48.3 | 0.00 | 0.00 | 0.00 | 49 | 1012.4 |
| 20260503183725 | 18 | 268 | 30.6 | 37.0 | 0.00 | 0.00 | 0.00 | 48 | 1012.6 |
| 20260503183223 | 18 | 266 | 33.8 | 37.0 | 0.00 | 0.00 | 0.00 | 48 | 1012.4 |
| 20260503182721 | 18 | 265 | 30.6 | 35.4 | 0.00 | 0.00 | 0.00 | 49 | 1012.3 |
| 20260503182219 | 17 | 237 | 30.6 | 33.8 | 0.00 | 0.00 | 0.00 | 48 | 1012.0 |
| 20260503181715 | 17 | 228 | 24.1 | 30.6 | 0.00 | 0.00 | 0.00 | 48 | 1011.7 |
| 20260503181213 | 18 | 239 | 35.4 | 40.2 | 0.00 | 0.00 | 0.00 | 47 | 1012.0 |
| 20260503180709 | 17 | 237 | 32.2 | 40.2 | 0.00 | 0.00 | 0.00 | 48 | 1012.6 |
| 20260503180208 | 17 | 249 | 33.8 | 40.2 | 0.00 | 0.00 | 0.00 | 46 | 1012.8 |
| 20260503175704 | 18 | 237 | 27.4 | 33.8 | 0.00 | 0.00 | 0.00 | 47 | 1012.9 |
| 20260503175202 | 18 | 237 | 24.1 | 29.0 | 0.00 | 0.00 | 0.00 | 47 | 1012.8 |
| 20260503174657 | 18 | 235 | 25.7 | 30.6 | 0.00 | 0.00 | 0.00 | 45 | 1013.0 |
| 20260503174155 | 18 | 259 | 27.4 | 30.6 | 0.00 | 0.00 | 0.00 | 46 | 1013.0 |
| 20260503173650 | 18 | 244 | 35.4 | 38.6 | 0.00 | 0.00 | 0.00 | 46 | 1013.0 |
| 20260503173146 | 17 | 228 | 29.0 | 30.6 | 0.00 | 0.00 | 0.00 | 46 | 1012.8 |
| 20260503172644 | 17 | 239 | 32.2 | 35.4 | 0.00 | 0.00 | 0.00 | 45 | 1013.2 |
| 20260503172141 | 18 | 236 | 38.6 | 41.8 | 0.00 | 0.00 | 0.00 | 43 | 1013.2 |
| 20260503171637 | 18 | 199 | 14.5 | 27.4 | 0.00 | 0.00 | 0.00 | 46 | 1012.8 |
| 20260503171135 | 18 | 251 | 40.2 | 48.3 | 0.00 | 0.00 | 0.00 | 44 | 1013.1 |
| 20260503170632 | 18 | 237 | 29.0 | 41.8 | 0.00 | 0.00 | 0.00 | 45 | 1013.3 |
| 20260503170128 | 18 | 231 | 27.4 | 35.4 | 0.00 | 0.00 | 0.00 | 45 | 1013.4 |